createdAt,value
2022-11-24T00:00:06.486Z,4.75
2022-11-24T00:02:33.933Z,4.78
2022-11-24T00:05:01.486Z,4.63
2022-11-24T00:07:28.997Z,4.68
2022-11-24T00:09:56.535Z,4.10
2022-11-24T00:12:24.031Z,4.28
2022-11-24T00:14:51.556Z,4.95
2022-11-24T00:17:19.060Z,4.22
2022-11-24T00:19:46.630Z,4.30
2022-11-24T00:22:14.116Z,4.05
2022-11-24T00:24:41.581Z,4.05
2022-11-24T00:27:09.147Z,4.45
2022-11-24T00:29:36.695Z,3.63
2022-11-24T00:32:05.913Z,4.70
2022-11-24T00:34:33.859Z,4.57
2022-11-24T00:37:01.509Z,4.15
2022-11-24T00:39:29.009Z,4.13
2022-11-24T00:41:56.603Z,3.40
2022-11-24T00:44:24.167Z,3.78
2022-11-24T00:46:51.696Z,4.25
2022-11-24T00:49:19.228Z,4.05
2022-11-24T00:51:46.793Z,5.25
2022-11-24T00:54:14.295Z,4.45
2022-11-24T00:56:41.751Z,4.00
2022-11-24T00:59:09.367Z,5.00
2022-11-24T01:01:37.037Z,3.92
2022-11-24T01:04:05.310Z,3.88
2022-11-24T01:06:32.986Z,3.72
2022-11-24T01:09:00.525Z,4.25
2022-11-24T01:11:50.821Z,4.10
2022-11-24T01:14:19.507Z,4.43
2022-11-24T01:16:47.047Z,3.85
2022-11-24T01:19:15.263Z,4.32
2022-11-24T01:21:42.805Z,3.58
2022-11-24T01:24:11.433Z,4.53
2022-11-24T01:26:39.520Z,4.32
2022-11-24T01:29:07.526Z,4.00
2022-11-24T01:31:36.835Z,4.30
2022-11-24T01:34:04.435Z,4.45
2022-11-24T01:36:32.120Z,3.97
2022-11-24T01:38:59.741Z,4.40
2022-11-24T01:41:27.643Z,3.97
2022-11-24T01:43:56.861Z,4.05
2022-11-24T01:46:39.544Z,4.03
2022-11-24T01:49:44.847Z,3.80
2022-11-24T01:52:27.702Z,4.20
2022-11-24T01:55:01.371Z,3.92
2022-11-24T01:57:47.551Z,4.18
2022-11-24T02:00:15.807Z,4.35
2022-11-24T02:02:45.762Z,4.65
2022-11-24T02:05:18.253Z,3.40
2022-11-24T02:07:48.282Z,3.97
2022-11-24T02:10:17.040Z,3.97
2022-11-24T02:12:50.579Z,3.92
2022-11-24T02:15:19.523Z,3.95
2022-11-24T02:17:47.115Z,3.50
2022-11-24T02:20:16.379Z,3.70
2022-11-24T02:23:11.437Z,4.45
2022-11-24T02:26:29.520Z,3.85
2022-11-24T02:28:57.233Z,3.45
2022-11-24T02:31:25.243Z,3.83
2022-11-24T02:33:53.646Z,4.20
2022-11-24T02:36:21.095Z,3.45
2022-11-24T02:38:48.726Z,3.83
2022-11-24T02:41:25.571Z,3.60
2022-11-24T02:43:58.439Z,4.38
2022-11-24T02:46:26.094Z,3.63
2022-11-24T02:48:53.872Z,3.83
2022-11-24T02:51:23.509Z,3.90
2022-11-24T02:53:50.995Z,3.65
2022-11-24T02:56:18.443Z,4.00
2022-11-24T02:58:45.966Z,4.40
2022-11-24T03:01:13.754Z,3.85
2022-11-24T03:03:41.287Z,4.38
2022-11-24T03:06:08.735Z,4.60
2022-11-24T03:08:36.243Z,4.05
2022-11-24T03:11:03.978Z,3.85
2022-11-24T03:13:31.471Z,4.15
2022-11-24T03:15:59.042Z,4.63
2022-11-24T03:18:26.661Z,3.83
2022-11-24T03:20:59.989Z,4.78
2022-11-24T03:23:27.503Z,4.05
2022-11-24T03:25:54.997Z,4.57
2022-11-24T03:28:22.518Z,3.88
2022-11-24T03:30:50.243Z,4.00
2022-11-24T03:33:17.745Z,3.95
2022-11-24T03:35:45.196Z,4.57
2022-11-24T03:38:12.673Z,4.65
2022-11-24T03:40:40.172Z,4.30
2022-11-24T03:43:07.928Z,3.92
2022-11-24T03:45:45.910Z,4.60
2022-11-24T03:48:15.987Z,4.22
2022-11-24T03:50:44.470Z,3.67
2022-11-24T03:53:11.960Z,4.40
2022-11-24T03:55:39.425Z,4.40
2022-11-24T03:58:06.855Z,5.03
2022-11-24T04:00:34.407Z,4.90
2022-11-24T04:03:02.056Z,4.47
2022-11-24T04:05:29.659Z,4.63
2022-11-24T04:07:57.654Z,4.13
2022-11-24T04:10:25.286Z,5.13
2022-11-24T04:12:52.747Z,5.20
2022-11-24T04:15:21.533Z,4.57
2022-11-24T04:17:50.236Z,5.43
2022-11-24T04:20:17.896Z,4.03
2022-11-24T04:22:45.315Z,4.20
2022-11-24T04:25:13.189Z,4.03
2022-11-24T04:27:40.574Z,4.80
2022-11-24T04:30:08.516Z,4.97
2022-11-24T04:32:36.730Z,4.10
2022-11-24T04:35:04.772Z,4.93
2022-11-24T04:37:32.135Z,5.07
2022-11-24T04:39:59.469Z,4.70
2022-11-24T04:42:26.825Z,5.47
2022-11-24T04:44:54.206Z,4.75
2022-11-24T04:47:24.274Z,5.28
2022-11-24T04:49:52.864Z,5.38
2022-11-24T04:52:23.140Z,4.63
2022-11-24T04:54:51.544Z,4.43
2022-11-24T04:57:25.604Z,4.85
2022-11-24T04:59:53.985Z,4.97
2022-11-24T05:02:22.086Z,5.43
2022-11-24T05:04:49.847Z,4.20
2022-11-24T05:07:19.878Z,4.00
2022-11-24T05:10:06.383Z,4.65
2022-11-24T05:12:33.735Z,4.18
2022-11-24T05:15:03.821Z,4.07
2022-11-24T05:17:34.502Z,4.35
2022-11-24T05:20:01.907Z,4.25
2022-11-24T05:22:30.181Z,3.88
2022-11-24T05:24:58.402Z,4.13
2022-11-24T05:27:25.962Z,3.17
2022-11-24T05:29:53.382Z,3.40
2022-11-24T05:32:20.790Z,2.58
2022-11-24T05:34:48.213Z,3.80
2022-11-24T05:37:15.644Z,3.63
2022-11-24T05:39:42.984Z,3.90
2022-11-24T05:42:28.804Z,3.40
2022-11-24T05:44:57.327Z,3.60
2022-11-24T05:47:25.569Z,3.58
2022-11-24T05:49:52.931Z,3.90
2022-11-24T05:52:20.268Z,3.42
2022-11-24T05:54:47.723Z,3.78
2022-11-24T05:57:17.708Z,4.25
2022-11-24T05:59:45.474Z,4.72
2022-11-24T06:02:14.072Z,4.05
2022-11-24T06:04:41.515Z,3.72
2022-11-24T06:07:11.750Z,3.42
2022-11-24T06:09:41.466Z,3.53
2022-11-24T06:12:11.922Z,3.60
2022-11-24T06:14:39.790Z,3.95
2022-11-24T06:17:09.227Z,3.55
2022-11-24T06:19:41.735Z,4.40
2022-11-24T06:22:09.569Z,4.07
2022-11-24T06:24:37.192Z,4.20
2022-11-24T06:27:04.618Z,3.75
2022-11-24T06:29:31.967Z,4.03
2022-11-24T06:31:59.321Z,4.53
2022-11-24T06:34:26.702Z,4.82
2022-11-24T06:36:54.108Z,5.00
2022-11-24T06:39:21.436Z,5.22
2022-11-24T06:41:52.905Z,5.15
2022-11-24T06:44:20.255Z,5.03
2022-11-24T06:46:47.667Z,6.30
2022-11-24T06:49:15.349Z,4.82
2022-11-24T06:51:43.140Z,5.18
2022-11-24T06:54:16.393Z,5.55
2022-11-24T06:56:43.797Z,4.82
2022-11-24T06:59:19.555Z,5.88
2022-11-24T07:01:47.214Z,4.70
2022-11-24T07:04:15.458Z,4.50
2022-11-24T07:06:43.653Z,4.30
2022-11-24T07:09:14.032Z,4.75
2022-11-24T07:11:42.341Z,4.38
2022-11-24T07:14:10.224Z,4.00
2022-11-24T07:16:39.363Z,4.40
2022-11-24T07:19:06.794Z,4.40
2022-11-24T07:21:34.173Z,3.60
2022-11-24T07:24:01.508Z,3.80
2022-11-24T07:26:28.959Z,3.40
2022-11-24T07:28:56.348Z,3.42
2022-11-24T07:31:26.584Z,3.00
2022-11-24T07:33:55.709Z,2.47
2022-11-24T07:36:24.271Z,2.50
2022-11-24T07:38:51.726Z,2.53
2022-11-24T07:41:20.214Z,2.20
2022-11-24T07:43:49.052Z,2.55
2022-11-24T07:46:19.828Z,2.38
2022-11-24T07:48:47.449Z,2.42
2022-11-24T07:51:15.779Z,2.00
2022-11-24T07:53:44.894Z,2.30
2022-11-24T07:56:12.619Z,1.90
2022-11-24T07:58:40.093Z,2.30
2022-11-24T08:01:17.835Z,2.03
2022-11-24T08:03:46.637Z,2.03
2022-11-24T08:06:24.467Z,1.90
2022-11-24T08:08:55.518Z,2.03
2022-11-24T08:11:23.339Z,2.47
2022-11-24T08:13:51.182Z,1.80
2022-11-24T08:16:20.212Z,2.13
2022-11-24T08:18:53.447Z,1.92
2022-11-24T08:21:23.461Z,2.15
2022-11-24T08:23:56.139Z,1.73
2022-11-24T08:26:25.001Z,2.22
2022-11-24T08:28:58.459Z,2.17
2022-11-24T08:31:33.443Z,2.05
2022-11-24T08:34:03.856Z,1.90
2022-11-24T08:36:32.281Z,2.42
2022-11-24T08:39:00.889Z,1.77
2022-11-24T08:41:29.873Z,2.10
2022-11-24T08:43:57.914Z,2.25
2022-11-24T08:46:25.522Z,1.73
2022-11-24T08:48:55.009Z,1.73
2022-11-24T08:51:26.573Z,2.08
2022-11-24T08:53:59.573Z,1.85
2022-11-24T08:56:31.069Z,1.85
2022-11-24T08:58:59.296Z,2.55
2022-11-24T09:01:28.424Z,2.70
2022-11-24T09:03:56.279Z,2.75
2022-11-24T09:06:30.102Z,2.28
2022-11-24T09:08:59.034Z,2.80
2022-11-24T09:11:27.440Z,2.30
2022-11-24T09:13:55.576Z,2.25
2022-11-24T09:16:26.655Z,2.45
2022-11-24T09:19:06.073Z,2.40
2022-11-24T09:21:37.744Z,2.10
2022-11-24T09:26:40.600Z,2.47
2022-11-24T09:29:11.124Z,2.50
2022-11-24T09:31:39.441Z,2.42
2022-11-24T09:34:11.173Z,2.30
2022-11-24T09:39:06.283Z,2.70
2022-11-24T09:41:52.364Z,2.45
2022-11-24T09:45:12.282Z,2.22
2022-11-24T09:48:02.041Z,2.05
2022-11-24T09:50:37.353Z,1.85
2022-11-24T09:53:22.881Z,2.63
2022-11-24T09:55:54.947Z,2.38
2022-11-24T09:58:43.480Z,2.88
2022-11-24T10:01:22.619Z,2.88
2022-11-24T10:03:54.820Z,2.47
2022-11-24T10:06:31.078Z,3.17
2022-11-24T10:09:27.712Z,2.83
2022-11-24T10:12:41.026Z,2.90
2022-11-24T10:15:58.611Z,2.45
2022-11-24T10:18:44.698Z,3.08
2022-11-24T10:21:43.534Z,3.15
2022-11-24T10:24:32.272Z,3.15
2022-11-24T10:27:13.707Z,4.03
2022-11-24T10:29:43.005Z,2.70
2022-11-24T10:32:37.778Z,3.97
2022-11-24T10:35:45.787Z,3.17
2022-11-24T10:38:41.276Z,3.00
2022-11-24T10:41:18.517Z,3.28
2022-11-24T10:43:45.904Z,3.30
2022-11-24T10:46:25.718Z,3.85
2022-11-24T10:49:00.222Z,3.22
2022-11-24T10:51:30.291Z,3.78
2022-11-24T10:54:15.606Z,3.10
2022-11-24T10:56:46.053Z,3.50
2022-11-24T10:59:38.380Z,3.38
2022-11-24T11:02:39.263Z,3.15
2022-11-24T11:05:31.923Z,3.25
2022-11-24T11:08:14.608Z,3.40
2022-11-24T11:10:44.862Z,3.22
2022-11-24T11:13:30.465Z,2.97
2022-11-24T11:15:59.216Z,2.90
2022-11-24T11:18:33.598Z,4.20
2022-11-24T11:21:03.684Z,2.97
2022-11-24T11:23:39.886Z,2.80
2022-11-24T11:26:27.390Z,2.85
2022-11-24T11:35:03.769Z,3.17
2022-11-24T11:37:33.681Z,3.80
2022-11-24T11:40:02.069Z,3.00
2022-11-24T11:43:00.744Z,3.42
2022-11-24T11:45:37.484Z,3.42
2022-11-24T11:48:40.667Z,2.95
2022-11-24T11:51:55.554Z,3.10
2022-11-24T11:54:43.183Z,3.42
2022-11-24T11:57:33.879Z,3.17
2022-11-24T12:00:16.406Z,2.95
2022-11-24T12:03:34.638Z,3.28
2022-11-24T12:06:27.192Z,3.03
2022-11-24T12:09:41.458Z,3.20
2022-11-24T12:12:58.038Z,3.30
2022-11-24T12:15:42.977Z,3.10
2022-11-24T12:21:34.152Z,3.20
2022-11-24T12:24:11.627Z,3.75
2022-11-24T12:27:03.126Z,3.38
2022-11-24T12:30:12.704Z,3.65
2022-11-24T12:33:20.121Z,3.00
2022-11-24T12:36:09.083Z,3.22
2022-11-24T12:39:30.200Z,3.15
2022-11-24T12:42:09.917Z,2.88
2022-11-24T12:44:55.812Z,3.95
2022-11-24T12:47:58.874Z,3.20
2022-11-24T12:50:35.073Z,3.38
2022-11-24T12:53:26.100Z,3.08
2022-11-24T12:56:00.130Z,2.60
2022-11-24T12:59:05.258Z,2.70
2022-11-24T13:01:55.294Z,3.88
2022-11-24T13:04:42.921Z,3.28
2022-11-24T13:07:20.391Z,3.13
2022-11-24T13:13:15.176Z,3.28
2022-11-24T13:16:34.448Z,2.97
2022-11-24T13:18:57.231Z,3.03
2022-11-24T13:21:28.256Z,2.63
2022-11-24T13:24:20.902Z,3.40
2022-11-24T13:26:52.644Z,3.17
2022-11-24T13:32:06.584Z,3.65
2022-11-24T13:34:43.057Z,3.10
2022-11-24T13:37:31.446Z,3.65
2022-11-24T13:40:13.344Z,3.47
2022-11-24T13:42:56.447Z,3.17
2022-11-24T13:45:39.174Z,4.40
2022-11-24T13:48:26.447Z,3.00
2022-11-24T13:50:54.069Z,2.38
2022-11-24T13:53:40.258Z,3.45
2022-11-24T13:56:13.471Z,3.53
2022-11-24T13:58:47.912Z,3.17
2022-11-24T14:01:28.432Z,3.20
2022-11-24T14:04:30.423Z,3.40
2022-11-24T14:07:08.380Z,3.30
2022-11-24T14:09:49.790Z,3.03
2022-11-24T14:12:24.849Z,3.25
2022-11-24T14:14:56.902Z,3.80
2022-11-24T14:17:28.722Z,3.50
2022-11-24T14:19:58.442Z,3.15
2022-11-24T14:22:40.430Z,3.40
2022-11-24T14:25:26.093Z,3.03
2022-11-24T14:27:54.050Z,3.00
2022-11-24T14:30:24.275Z,3.00
2022-11-24T14:33:00.620Z,3.20
2022-11-24T14:35:34.346Z,4.18
2022-11-24T14:38:05.162Z,3.22
2022-11-24T14:40:48.170Z,3.23
2022-11-24T14:43:31.631Z,6.88
2022-11-24T14:46:07.570Z,5.30
2022-11-24T14:48:48.411Z,6.80
2022-11-24T14:51:28.147Z,10.57
2022-11-24T14:54:01.678Z,9.63
2022-11-24T14:56:32.360Z,4.13
2022-11-24T14:59:00.027Z,4.32
2022-11-24T15:01:27.480Z,6.43
2022-11-24T15:04:54.460Z,6.90
2022-11-24T15:07:25.967Z,10.18
2022-11-24T15:09:59.932Z,4.80
2022-11-24T15:12:37.910Z,10.20
2022-11-24T15:15:20.416Z,7.95
2022-11-24T15:17:53.458Z,9.38
2022-11-24T15:20:29.546Z,9.10
2022-11-24T15:23:28.500Z,8.52
2022-11-24T15:25:57.523Z,7.28
2022-11-24T15:28:25.729Z,6.00
2022-11-24T15:30:56.675Z,6.43
2022-11-24T15:33:24.124Z,10.88
2022-11-24T15:35:51.856Z,6.55
2022-11-24T15:38:19.866Z,5.97
2022-11-24T15:40:50.907Z,5.63
2022-11-24T15:43:33.536Z,4.32
2022-11-24T15:46:03.206Z,5.28
2022-11-24T15:48:31.503Z,4.90
2022-11-24T15:51:06.170Z,7.95
2022-11-24T15:54:02.011Z,6.80
2022-11-24T15:56:37.703Z,4.75
2022-11-24T15:59:20.188Z,6.47
2022-11-24T16:01:51.207Z,6.45
2022-11-24T16:04:21.719Z,5.10
2022-11-24T16:06:49.175Z,5.03
2022-11-24T16:09:17.231Z,6.40
2022-11-24T16:11:44.782Z,4.90
2022-11-24T16:14:12.180Z,6.47
2022-11-24T16:16:40.699Z,6.20
2022-11-24T16:19:10.264Z,5.75
2022-11-24T16:21:37.831Z,4.32
2022-11-24T16:24:05.508Z,5.60
2022-11-24T16:26:32.858Z,3.53
2022-11-24T16:29:00.189Z,4.07
2022-11-24T16:31:27.778Z,5.50
2022-11-24T16:33:55.206Z,4.07
2022-11-24T16:36:22.658Z,5.00
2022-11-24T16:38:50.331Z,5.28
2022-11-24T16:41:17.944Z,4.63
2022-11-24T16:43:46.146Z,4.95
2022-11-24T16:46:21.801Z,5.05
2022-11-24T16:48:55.626Z,5.43
2022-11-24T16:51:24.302Z,5.60
2022-11-24T16:53:59.284Z,4.20
2022-11-24T16:56:29.023Z,5.40
2022-11-24T16:58:56.448Z,6.53
2022-11-24T17:01:23.958Z,5.15
2022-11-24T17:03:51.646Z,4.85
2022-11-24T17:06:19.001Z,4.45
2022-11-24T17:08:47.596Z,4.40
2022-11-24T17:11:21.658Z,4.40
2022-11-24T17:13:50.177Z,3.83
2022-11-24T17:16:21.375Z,6.70
2022-11-24T17:18:50.065Z,16.63
2022-11-24T17:21:21.487Z,6.53
2022-11-24T17:23:57.330Z,4.50
2022-11-24T17:26:25.928Z,4.53
2022-11-24T17:28:54.433Z,3.78
2022-11-24T17:31:25.546Z,4.90
2022-11-24T17:33:56.188Z,5.05
2022-11-24T17:36:24.470Z,5.30
2022-11-24T17:38:52.360Z,4.50
2022-11-24T17:41:21.057Z,4.13
2022-11-24T17:43:55.677Z,4.75
2022-11-24T17:46:28.503Z,4.43
2022-11-24T17:48:56.492Z,3.90
2022-11-24T17:51:26.346Z,4.32
2022-11-24T17:53:55.549Z,3.92
2022-11-24T17:56:27.782Z,4.20
2022-11-24T17:59:00.217Z,4.45
2022-11-24T18:01:32.237Z,4.47
2022-11-24T18:04:00.054Z,4.32
2022-11-24T18:06:28.725Z,3.58
2022-11-24T18:08:57.716Z,3.08
2022-11-24T18:11:31.726Z,4.07
2022-11-24T18:14:03.556Z,3.90
2022-11-24T18:16:33.989Z,3.80
2022-11-24T18:19:11.589Z,4.35
2022-11-24T18:21:41.312Z,4.13
2022-11-24T18:24:11.690Z,3.67
2022-11-24T18:26:40.884Z,4.03
2022-11-24T18:29:09.944Z,3.70
2022-11-24T18:31:38.243Z,3.40
2022-11-24T18:34:06.654Z,4.00
2022-11-24T18:36:35.211Z,3.90
2022-11-24T18:39:08.791Z,13.32
2022-11-24T18:41:36.519Z,8.85
2022-11-24T18:44:07.669Z,8.25
2022-11-24T18:46:36.433Z,18.17
2022-11-24T18:49:04.646Z,5.35
2022-11-24T18:51:32.114Z,5.13
2022-11-24T18:53:59.878Z,3.80
2022-11-24T18:56:27.273Z,3.85
2022-11-24T18:58:56.468Z,4.18
2022-11-24T19:01:29.300Z,4.18
2022-11-24T19:04:01.684Z,6.88
2022-11-24T19:06:34.309Z,5.00
2022-11-24T19:09:06.651Z,4.63
2022-11-24T19:11:37.720Z,3.85
2022-11-24T19:14:08.396Z,4.28
2022-11-24T19:16:36.183Z,4.28
2022-11-24T19:19:04.622Z,4.00
2022-11-24T19:21:35.398Z,3.88
2022-11-24T19:24:05.776Z,3.73
2022-11-24T19:26:37.090Z,3.78
2022-11-24T19:29:06.241Z,3.80
2022-11-24T19:31:34.925Z,3.78
2022-11-24T19:34:03.410Z,8.55
2022-11-24T19:36:31.650Z,39.00
2022-11-24T19:38:59.808Z,12.07
2022-11-24T19:41:31.163Z,17.00
2022-11-24T19:43:59.396Z,6.20
2022-11-24T19:46:29.534Z,7.88
2022-11-24T19:49:02.582Z,11.00
2022-11-24T19:51:36.154Z,8.52
2022-11-24T19:54:06.807Z,5.38
2022-11-24T19:56:36.923Z,5.32
2022-11-24T19:59:06.356Z,3.80
2022-11-24T20:01:38.696Z,3.80
2022-11-24T20:04:14.873Z,3.88
2022-11-24T20:06:45.508Z,3.25
2022-11-24T20:09:16.624Z,3.53
2022-11-24T20:11:44.778Z,4.13
2022-11-24T20:14:15.142Z,3.13
2022-11-24T20:16:43.241Z,3.75
2022-11-24T20:19:14.311Z,3.58
2022-11-24T20:21:46.186Z,3.50
2022-11-24T20:24:21.119Z,3.83
2022-11-24T20:26:53.671Z,4.60
2022-11-24T20:29:21.321Z,12.50
2022-11-24T20:31:53.508Z,26.95
2022-11-24T20:34:21.820Z,46.15
2022-11-24T20:36:49.642Z,49.03
2022-11-24T20:39:25.397Z,13.18
2022-11-24T20:41:55.203Z,4.82
2022-11-24T20:44:25.913Z,5.50
2022-11-24T20:46:56.708Z,5.53
2022-11-24T20:49:25.000Z,5.13
2022-11-24T20:51:54.871Z,4.38
2022-11-24T20:54:22.688Z,3.72
2022-11-24T20:56:50.115Z,3.72
2022-11-24T20:59:22.124Z,3.47
2022-11-24T21:01:51.988Z,4.35
2022-11-24T21:04:24.356Z,3.70
2022-11-24T21:06:51.783Z,3.38
2022-11-24T21:09:19.310Z,3.85
2022-11-24T21:11:47.111Z,3.92
2022-11-24T21:14:15.070Z,3.63
2022-11-24T21:16:43.288Z,3.75
2022-11-24T21:19:17.041Z,3.67
2022-11-24T21:21:44.915Z,3.47
2022-11-24T21:24:16.141Z,3.60
2022-11-24T21:26:47.661Z,4.05
2022-11-24T21:29:22.119Z,14.23
2022-11-24T21:31:49.650Z,19.90
2022-11-24T21:34:20.507Z,18.40
2022-11-24T21:36:48.277Z,5.78
2022-11-24T21:39:16.312Z,4.03
2022-11-24T21:41:44.432Z,4.00
2022-11-24T21:44:13.607Z,3.80
2022-11-24T21:46:46.187Z,4.40
2022-11-24T21:49:16.841Z,6.30
2022-11-24T21:51:44.177Z,3.90
2022-11-24T21:54:11.532Z,4.05
2022-11-24T21:56:38.899Z,3.75
2022-11-24T21:59:06.237Z,3.35
2022-11-24T22:01:33.640Z,3.80
2022-11-24T22:04:01.080Z,3.42
2022-11-24T22:06:28.490Z,4.68
2022-11-24T22:08:55.909Z,3.90
2022-11-24T22:11:25.495Z,4.25
2022-11-24T22:13:53.645Z,4.38
2022-11-24T22:16:24.129Z,3.78
2022-11-24T22:18:52.001Z,4.13
2022-11-24T22:21:24.091Z,4.13
2022-11-24T22:23:52.659Z,3.38
2022-11-24T22:26:23.703Z,4.40
2022-11-24T22:28:52.825Z,4.22
2022-11-24T22:31:27.297Z,5.30
2022-11-24T22:33:56.945Z,6.10
2022-11-24T22:36:28.742Z,7.07
2022-11-24T22:39:04.941Z,5.97
2022-11-24T22:41:35.392Z,5.93
2022-11-24T22:44:02.818Z,4.82
2022-11-24T22:46:31.913Z,4.75
2022-11-24T22:49:01.398Z,4.45
2022-11-24T22:51:32.477Z,3.45
2022-11-24T22:54:05.501Z,3.92
2022-11-24T22:56:34.151Z,3.80
2022-11-24T22:59:02.965Z,3.58
2022-11-24T23:01:33.583Z,3.33
2022-11-24T23:04:03.567Z,3.78
2022-11-24T23:06:32.728Z,3.33
2022-11-24T23:09:02.389Z,3.42
2022-11-24T23:11:41.156Z,3.72
2022-11-24T23:14:15.253Z,3.22
2022-11-24T23:16:43.883Z,3.58
2022-11-24T23:19:11.319Z,3.70
2022-11-24T23:21:39.333Z,3.80
2022-11-24T23:24:08.678Z,3.28
2022-11-24T23:26:39.405Z,3.45
2022-11-24T23:29:08.084Z,3.47
2022-11-24T23:31:36.291Z,3.35
2022-11-24T23:34:04.057Z,3.88
2022-11-24T23:36:32.984Z,3.85
2022-11-24T23:39:10.853Z,3.45
2022-11-24T23:41:38.276Z,3.72
2022-11-24T23:44:06.661Z,3.30
2022-11-24T23:46:34.189Z,3.92
2022-11-24T23:49:01.633Z,4.35
2022-11-24T23:51:32.382Z,3.75
2022-11-24T23:54:00.633Z,4.10
2022-11-24T23:56:35.307Z,4.00
2022-11-24T23:59:04.669Z,3.92
